Time;durP1;ratioP1;P1;durP2;ratioP2;P2;SDS_P1;SDS_P2;PMS_P1;PMS_P2;Temp;Humidity;BMP_temperature;BMP_pressure;BME280_temperature;BME280_humidity;BME280_pressure;Samples;Min_cycle;Max_cycle;Signal;HPM_P1;HPM_P2
2021/07/06 00:00:39;;;;;;;6.10;4.20;;;;;;;21.36;73.78;99866.81;1764447;80;21110;-72
2021/07/06 00:03:06;;;;;;;7.10;4.13;;;;;;;21.33;73.90;99865.55;1768216;79;21031;-71
2021/07/06 00:05:33;;;;;;;5.77;4.07;;;;;;;21.30;73.92;99867.02;1775405;80;21071;-72
2021/07/06 00:08:00;;;;;;;5.97;4.37;;;;;;;21.27;73.99;99872.35;1729992;81;22201;-71
2021/07/06 00:10:27;;;;;;;7.67;4.50;;;;;;;21.24;74.11;99881.19;1771496;80;21030;-71
2021/07/06 00:12:55;;;;;;;5.57;3.50;;;;;;;21.19;74.21;99884.95;1770357;79;21070;-71
2021/07/06 00:15:25;;;;;;;5.90;4.17;;;;;;;21.16;74.35;99878.84;1762376;79;21089;-72
2021/07/06 00:17:55;;;;;;;7.37;4.10;;;;;;;21.13;74.46;99872.74;1773358;80;21138;-71
2021/07/06 00:20:23;;;;;;;6.03;4.33;;;;;;;21.07;74.54;99871.41;1767564;80;21526;-72
2021/07/06 00:22:50;;;;;;;4.70;4.03;;;;;;;21.04;74.71;99873.45;1769126;79;21110;-72
2021/07/06 00:25:17;;;;;;;5.37;4.20;;;;;;;21.02;74.98;99875.70;1759992;79;21062;-72
2021/07/06 00:27:45;;;;;;;5.07;3.73;;;;;;;20.96;75.03;99871.09;1757956;80;21051;-72
2021/07/06 00:30:12;;;;;;;5.43;4.07;;;;;;;20.96;75.25;99873.81;1766320;80;21101;-71
2021/07/06 00:32:39;;;;;;;7.30;4.40;;;;;;;20.91;75.47;99869.97;1767918;79;21105;-72
2021/07/06 00:35:07;;;;;;;6.50;4.20;;;;;;;20.88;75.65;99874.72;1774444;80;21051;-72
2021/07/06 00:37:34;;;;;;;7.07;4.53;;;;;;;20.82;75.77;99877.45;1732467;81;20964;-72
2021/07/06 00:40:02;;;;;;;5.50;4.33;;;;;;;20.79;76.06;99881.63;1781648;80;21042;-71
2021/07/06 00:42:29;;;;;;;5.30;4.13;;;;;;;20.74;76.17;99874.30;1780362;79;21101;-72
2021/07/06 00:44:56;;;;;;;4.90;4.17;;;;;;;20.70;76.28;99885.05;1776467;79;20973;-72
2021/07/06 00:47:34;;;;;;;5.57;4.57;;;;;;;20.68;76.45;99887.30;1768313;80;21051;-70
2021/07/06 00:50:03;;;;;;;6.23;4.57;;;;;;;20.67;76.54;99888.45;1781348;79;21066;-73
2021/07/06 00:52:29;;;;;;;7.47;4.40;;;;;;;20.64;76.52;99882.34;1778475;79;22499;-73
2021/07/06 00:54:56;;;;;;;4.73;4.00;;;;;;;20.64;76.62;99885.63;1772049;79;21141;-72
2021/07/06 00:57:29;;;;;;;6.77;4.07;;;;;;;20.62;76.69;99880.52;1747798;81;21067;-72
2021/07/06 01:00:03;;;;;;;6.17;3.97;;;;;;;20.60;76.82;99885.52;1769810;80;21039;-72
2021/07/06 01:02:30;;;;;;;7.67;4.30;;;;;;;20.59;76.81;99879.84;1765501;79;21038;-72
2021/07/06 01:04:57;;;;;;;7.67;4.23;;;;;;;20.59;76.77;99884.70;1772452;80;21051;-72
2021/07/06 01:07:23;;;;;;;6.10;4.03;;;;;;;20.61;76.79;99895.23;1767362;80;21144;-71
2021/07/06 01:09:51;;;;;;;6.20;4.20;;;;;;;20.59;76.89;99894.77;1774580;80;21475;-71
2021/07/06 01:12:17;;;;;;;5.20;3.90;;;;;;;20.57;76.96;99898.41;1770357;79;20988;-72
2021/07/06 01:14:44;;;;;;;6.43;3.83;;;;;;;20.55;77.01;99902.80;1765035;79;21071;-71
2021/07/06 01:17:12;;;;;;;6.37;4.20;;;;;;;20.52;76.97;99899.98;1755415;80;21066;-72
2021/07/06 01:19:41;;;;;;;6.00;4.70;;;;;;;20.50;77.09;99900.30;1755258;81;21220;-72
2021/07/06 01:22:08;;;;;;;5.63;4.47;;;;;;;20.46;77.11;99902.09;1762221;79;21162;-72
2021/07/06 01:24:38;;;;;;;5.73;4.27;;;;;;;20.46;77.14;99904.80;1768771;78;21098;-72
2021/07/06 01:27:05;;;;;;;10.80;4.53;;;;;;;20.46;77.19;99906.73;1762535;80;20993;-72
2021/07/06 01:29:32;;;;;;;7.80;4.70;;;;;;;20.46;77.20;99909.44;1778887;80;20960;-71
2021/07/06 01:31:59;;;;;;;6.20;4.50;;;;;;;20.46;77.12;99911.58;1762436;79;22133;-71
2021/07/06 01:34:26;;;;;;;5.27;4.13;;;;;;;20.45;77.07;99911.36;1761599;79;20995;-72
2021/07/06 01:36:53;;;;;;;6.53;4.73;;;;;;;20.44;77.10;99913.86;1769481;80;21054;-71
2021/07/06 01:39:21;;;;;;;6.80;4.40;;;;;;;20.44;77.14;99919.86;1740601;81;21198;-72
2021/07/06 01:41:47;;;;;;;6.87;4.30;;;;;;;20.42;77.14;99922.89;1775359;80;20860;-72
2021/07/06 01:44:23;;;;;;;6.07;4.50;;;;;;;20.40;77.14;99925.16;1775677;79;21119;-71
2021/07/06 01:46:49;;;;;;;7.07;4.70;;;;;;;20.39;77.20;99925.70;1768571;80;21428;-73
2021/07/06 01:49:16;;;;;;;6.87;4.80;;;;;;;20.39;77.22;99933.05;1785075;80;21031;-73
2021/07/06 01:51:44;;;;;;;6.57;4.47;;;;;;;20.39;77.19;99928.42;1765426;80;20971;-73
2021/07/06 01:54:13;;;;;;;7.53;4.50;;;;;;;20.38;77.20;99936.34;1777033;79;21625;-72
2021/07/06 01:56:47;;;;;;;8.90;4.60;;;;;;;20.36;77.17;99933.73;1766374;79;21109;-72
2021/07/06 01:59:15;;;;;;;5.30;4.80;;;;;;;20.35;77.23;99935.66;1758571;80;21526;-71
2021/07/06 02:01:43;;;;;;;8.80;4.83;;;;;;;20.36;77.20;99937.80;1768764;80;20964;-73
2021/07/06 02:04:11;;;;;;;5.83;4.70;;;;;;;20.37;77.17;99948.33;1761583;79;21090;-73
2021/07/06 02:06:38;;;;;;;6.77;4.30;;;;;;;20.39;77.08;99947.98;1765106;79;20984;-73
2021/07/06 02:09:05;;;;;;;5.73;4.27;;;;;;;20.41;77.02;99954.44;1783440;80;21096;-72
2021/07/06 02:11:32;;;;;;;5.83;4.67;;;;;;;20.41;76.95;99954.44;1770091;79;21039;-74
2021/07/06 02:14:01;;;;;;;6.90;4.57;;;;;;;20.43;76.90;99957.58;1757360;79;21007;-73
2021/07/06 02:16:28;;;;;;;6.40;4.40;;;;;;;20.44;76.81;99957.83;1774503;80;21013;-73
2021/07/06 02:18:56;;;;;;;7.53;4.50;;;;;;;20.50;76.83;99962.70;1772246;79;21089;-73
2021/07/06 02:21:23;;;;;;;6.13;4.70;;;;;;;20.55;76.68;99972.55;1753106;81;21574;-74
2021/07/06 02:23:49;;;;;;;6.70;4.60;;;;;;;20.59;76.41;99972.88;1774703;80;20944;-72
2021/07/06 02:26:16;;;;;;;6.20;4.47;;;;;;;20.63;76.24;99977.06;1769096;79;21058;-72
2021/07/06 02:28:43;;;;;;;7.23;4.70;;;;;;;20.68;76.13;99974.72;1772125;80;21047;-73
2021/07/06 02:31:10;;;;;;;5.63;4.50;;;;;;;20.73;75.98;99973.11;1772720;79;21235;-73
2021/07/06 02:33:37;;;;;;;5.93;4.13;;;;;;;20.82;75.80;99973.80;1753847;80;21123;-73
2021/07/06 02:36:07;;;;;;;6.50;4.27;;;;;;;20.86;75.58;99974.69;1729641;81;21053;-73
2021/07/06 02:38:38;;;;;;;6.10;4.55;;;;;;;20.91;75.36;99977.19;1716075;83;21051;-73
2021/07/06 02:41:05;;;;;;;6.73;4.57;;;;;;;20.94;75.02;99972.45;1755492;80;21452;-73
2021/07/06 02:43:32;;;;;;;6.90;4.63;;;;;;;21.02;74.95;99978.30;1781092;79;21530;-71
2021/07/06 02:45:59;;;;;;;5.47;4.20;;;;;;;21.12;74.69;99972.98;1780329;79;21124;-72
2021/07/06 02:48:27;;;;;;;5.97;4.63;;;;;;;21.19;74.16;99979.19;1761100;80;20995;-74
2021/07/06 02:50:54;;;;;;;5.43;4.33;;;;;;;21.22;74.02;99979.32;1786486;80;21062;-72
2021/07/06 02:53:20;;;;;;;6.10;4.63;;;;;;;21.30;73.91;99972.95;1774420;79;21550;-72
2021/07/06 02:55:47;;;;;;;7.00;4.77;;;;;;;21.38;73.69;99981.34;1757985;81;21093;-71
2021/07/06 02:58:14;;;;;;;8.07;4.90;;;;;;;21.47;73.50;99986.08;1776188;80;21566;-72
2021/07/06 03:00:42;;;;;;;5.77;4.63;;;;;;;21.54;73.05;99983.55;1760531;79;21056;-72
2021/07/06 03:03:10;;;;;;;6.30;4.77;;;;;;;21.57;72.88;99984.80;1765562;80;21079;-72
2021/07/06 03:05:38;;;;;;;5.90;4.70;;;;;;;21.61;72.60;99987.83;1760315;80;20995;-72
2021/07/06 03:08:06;;;;;;;8.10;5.07;;;;;;;21.62;72.46;99992.70;1768041;79;21648;-72
2021/07/06 03:10:39;;;;;;;6.03;4.80;;;;;;;21.61;72.40;99995.20;1761243;79;21409;-72
2021/07/06 03:13:06;;;;;;;6.47;4.90;;;;;;;21.57;72.05;99993.73;1775731;79;21095;-71
2021/07/06 03:15:33;;;;;;;6.83;4.63;;;;;;;21.52;72.17;99992.06;1771016;80;21308;-72
2021/07/06 03:18:01;;;;;;;8.00;5.20;;;;;;;21.51;72.30;99996.47;1766747;79;21447;-72
2021/07/06 03:20:28;;;;;;;7.00;4.50;;;;;;;21.54;72.54;99997.14;1764697;80;21557;-71
2021/07/06 03:22:55;;;;;;;6.37;4.80;;;;;;;21.56;72.35;99997.60;1783865;79;21494;-72
2021/07/06 03:25:25;;;;;;;7.33;4.70;;;;;;;21.56;72.13;100001.67;1785883;80;21101;-73
2021/07/06 03:27:54;;;;;;;4.97;3.95;;;;;;;21.54;72.19;100003.94;1723667;81;21606;-73
2021/07/06 03:30:25;;;;;;;8.50;4.77;;;;;;;21.57;72.30;100005.18;1779483;79;21023;-72
2021/07/06 03:32:53;;;;;;;8.73;4.70;;;;;;;21.55;72.47;100015.02;1731863;80;21341;-73
2021/07/06 03:35:19;;;;;;;6.90;4.83;;;;;;;21.54;72.64;100012.88;1772969;79;21123;-73
2021/07/06 03:37:47;;;;;;;7.20;5.10;;;;;;;21.56;72.76;100005.75;1768902;79;21042;-73
2021/07/06 03:40:14;;;;;;;5.23;4.70;;;;;;;21.63;72.59;100001.09;1764979;80;21027;-72
2021/07/06 03:42:42;;;;;;;7.93;4.73;;;;;;;21.66;72.48;100004.48;1761502;80;21526;-73
2021/07/06 03:45:11;;;;;;;5.93;4.67;;;;;;;21.73;72.54;100008.75;1778675;80;21003;-74
2021/07/06 03:47:38;;;;;;;6.97;5.33;;;;;;;21.77;72.43;100007.70;1776705;79;21765;-73
2021/07/06 03:50:08;;;;;;;14.63;5.30;;;;;;;21.81;72.30;100019.25;1761727;80;21059;-72
2021/07/06 03:52:35;;;;;;;8.17;5.07;;;;;;;21.82;72.24;100014.84;1738661;80;21565;-72
2021/07/06 03:55:01;;;;;;;6.03;4.50;;;;;;;21.86;72.19;100012.22;1782561;80;21011;-73
2021/07/06 03:57:31;;;;;;;6.83;4.70;;;;;;;21.90;72.12;100013.11;1778803;79;21070;-72
2021/07/06 04:00:11;;;;;;;6.10;4.78;;;;;;;21.93;71.99;100015.13;1768405;80;21515;-73
2021/07/06 04:02:39;;;;;;;8.30;5.50;;;;;;;21.96;71.77;100015.23;1765668;80;21038;-74
2021/07/06 04:05:08;;;;;;;5.83;4.53;;;;;;;21.98;71.73;100020.30;1766535;79;21070;-72
2021/07/06 04:07:36;;;;;;;7.03;4.90;;;;;;;22.02;71.54;100017.14;1760096;79;21027;-72
2021/07/06 04:10:07;;;;;;;6.40;4.67;;;;;;;22.05;71.39;100015.09;1774331;80;21521;-72
2021/07/06 04:12:34;;;;;;;7.83;4.83;;;;;;;22.14;71.56;100023.07;1760310;80;21101;-73
2021/07/06 04:15:04;;;;;;;7.33;5.00;;;;;;;22.21;71.30;100025.47;1764052;79;20987;-73
2021/07/06 04:17:31;;;;;;;6.33;5.17;;;;;;;22.27;71.01;100021.11;1756906;79;21237;-72
2021/07/06 04:19:58;;;;;;;7.10;5.10;;;;;;;22.30;70.96;100020.42;1720492;81;21226;-72
2021/07/06 04:22:24;;;;;;;7.03;5.10;;;;;;;22.36;70.83;100021.75;1773986;79;21091;-72
2021/07/06 04:24:52;;;;;;;5.80;4.97;;;;;;;22.37;70.41;100025.47;1769738;80;21510;-72
2021/07/06 04:27:19;;;;;;;7.90;5.23;;;;;;;22.38;70.56;100024.92;1773396;79;21502;-72
2021/07/06 04:29:48;;;;;;;5.43;4.50;;;;;;;22.46;70.44;100025.31;1743640;81;21558;-73
2021/07/06 04:32:16;;;;;;;7.67;5.30;;;;;;;22.51;70.10;100022.34;1733149;82;21514;-73
2021/07/06 04:34:46;;;;;;;6.63;5.23;;;;;;;22.56;70.10;100030.23;1735075;81;21062;-72
2021/07/06 04:37:13;;;;;;;6.33;4.90;;;;;;;22.63;70.19;100031.77;1785238;79;21264;-71
2021/07/06 04:39:40;;;;;;;5.73;5.03;;;;;;;22.62;69.80;100030.20;1766011;79;21019;-72
2021/07/06 04:42:07;;;;;;;6.63;5.43;;;;;;;22.62;69.71;100030.20;1781039;80;21022;-73
2021/07/06 04:44:33;;;;;;;6.87;5.40;;;;;;;22.58;69.66;100036.13;1749390;81;21522;-73
2021/07/06 04:47:00;;;;;;;8.03;5.47;;;;;;;22.58;69.77;100029.33;1786661;80;20948;-73
2021/07/06 04:49:28;;;;;;;5.43;4.73;;;;;;;22.59;69.87;100037.70;1773473;79;21146;-73
2021/07/06 04:51:56;;;;;;;7.63;5.30;;;;;;;22.67;69.73;100032.67;1764722;80;21101;-73
2021/07/06 04:54:24;;;;;;;6.90;5.70;;;;;;;22.70;69.48;100031.97;1765757;79;20980;-72
2021/07/06 04:56:52;;;;;;;8.00;5.33;;;;;;;22.74;69.53;100025.80;1771956;80;21074;-74
2021/07/06 04:59:20;;;;;;;7.07;5.37;;;;;;;22.81;69.42;100028.72;1776747;78;21491;-73
2021/07/06 05:01:47;;;;;;;8.17;5.73;;;;;;;22.87;69.34;100031.39;1769193;80;21135;-73
2021/07/06 05:04:14;;;;;;;7.10;5.97;;;;;;;22.98;68.93;100036.55;1777307;80;21613;-73
2021/07/06 05:06:41;;;;;;;6.27;5.67;;;;;;;23.05;68.46;100038.64;1758660;80;20963;-73
2021/07/06 05:09:10;;;;;;;7.70;5.90;;;;;;;23.05;68.47;100039.42;1765359;79;21019;-74
2021/07/06 05:11:37;;;;;;;7.17;6.07;;;;;;;23.02;68.72;100045.58;1770329;79;21038;-74
2021/07/06 05:14:05;;;;;;;6.83;5.57;;;;;;;23.01;68.99;100042.65;1778202;80;21541;-72
2021/07/06 05:16:32;;;;;;;6.97;5.40;;;;;;;23.06;68.86;100039.64;1772302;79;20996;-73
2021/07/06 05:18:58;;;;;;;7.73;5.67;;;;;;;23.07;68.74;100032.28;1779309;78;21071;-73
2021/07/06 05:21:27;;;;;;;6.90;5.87;;;;;;;23.07;68.96;100028.98;1776249;79;21051;-72
2021/07/06 05:23:54;;;;;;;7.43;5.43;;;;;;;23.09;68.79;100034.84;1785646;79;21086;-73
2021/07/06 05:26:20;;;;;;;7.40;5.70;;;;;;;23.07;68.58;100033.06;1759970;80;21092;-73
2021/07/06 05:28:47;;;;;;;7.80;5.47;;;;;;;23.06;68.90;100032.83;1782488;80;21087;-73
2021/07/06 05:31:15;;;;;;;6.90;5.60;;;;;;;23.09;69.03;100034.84;1772502;80;21475;-72
2021/07/06 05:33:41;;;;;;;6.40;5.53;;;;;;;23.13;68.77;100034.38;1777498;79;20963;-73
2021/07/06 05:36:08;;;;;;;6.93;5.53;;;;;;;23.14;68.23;100033.80;1774966;80;21456;-73
2021/07/06 05:38:35;;;;;;;7.87;5.97;;;;;;;23.07;68.36;100031.70;1763423;81;21105;-72
2021/07/06 05:41:03;;;;;;;7.87;6.13;;;;;;;23.02;68.65;100037.41;1721963;81;20964;-72
2021/07/06 05:43:30;;;;;;;8.63;5.70;;;;;;;23.05;69.02;100029.11;1780347;79;21201;-74
2021/07/06 05:45:57;;;;;;;7.93;6.10;;;;;;;23.11;69.24;100040.74;1773761;80;21475;-73
2021/07/06 05:48:24;;;;;;;10.37;5.70;;;;;;;23.09;69.00;100033.48;1775002;80;21126;-73
2021/07/06 05:50:51;;;;;;;7.03;6.07;;;;;;;23.10;69.03;100040.53;1768167;80;21119;-73
2021/07/06 05:53:17;;;;;;;8.13;5.93;;;;;;;23.14;69.06;100045.48;1779837;79;21007;-73
2021/07/06 05:55:44;;;;;;;8.90;6.03;;;;;;;23.15;69.13;100045.69;1756224;81;21518;-74
2021/07/06 05:58:11;;;;;;;30.97;9.43;;;;;;;23.22;69.03;100053.81;1766848;80;20965;-74
2021/07/06 06:00:39;;;;;;;31.93;9.13;;;;;;;23.28;69.30;100056.48;1772202;79;21008;-73
2021/07/06 06:03:12;;;;;;;15.10;7.10;;;;;;;23.35;69.38;100049.26;1778157;79;21110;-73
2021/07/06 06:05:39;;;;;;;7.13;5.67;;;;;;;23.40;68.73;100047.63;1738249;81;20992;-74
2021/07/06 06:08:06;;;;;;;6.67;5.70;;;;;;;23.40;68.38;100048.20;1782244;79;21058;-73
2021/07/06 06:10:33;;;;;;;7.23;5.23;;;;;;;23.42;68.33;100058.16;1772124;79;21020;-73
2021/07/06 06:13:01;;;;;;;19.00;7.20;;;;;;;23.48;68.32;100060.83;1767782;80;20952;-74
2021/07/06 06:15:28;;;;;;;9.10;5.93;;;;;;;23.50;68.18;100062.64;1774668;79;21140;-73
2021/07/06 06:17:54;;;;;;;10.10;6.57;;;;;;;23.53;67.78;100066.02;1785371;80;21656;-73
2021/07/06 06:20:21;;;;;;;15.00;7.67;;;;;;;23.51;67.67;100075.69;1780932;79;21100;-73
2021/07/06 06:22:48;;;;;;;11.27;6.33;;;;;;;23.50;67.88;100065.37;1766603;80;21649;-73
2021/07/06 06:25:15;;;;;;;15.97;6.17;;;;;;;23.51;67.87;100071.03;1774672;79;21502;-74
2021/07/06 06:27:42;;;;;;;8.97;6.23;;;;;;;23.51;68.20;100066.94;1778534;80;21166;-72
2021/07/06 06:30:11;;;;;;;11.63;6.43;;;;;;;23.52;67.96;100073.96;1761893;79;21072;-73
2021/07/06 06:32:38;;;;;;;8.50;6.20;;;;;;;23.54;68.02;100070.31;1773286;79;21496;-72
2021/07/06 06:35:07;;;;;;;10.53;6.80;;;;;;;23.62;68.12;100076.70;1774815;80;21119;-72
2021/07/06 06:37:33;;;;;;;12.40;6.90;;;;;;;23.71;68.21;100073.23;1768189;79;21018;-72
2021/07/06 06:40:00;;;;;;;7.67;6.03;;;;;;;23.82;68.15;100072.09;1759350;79;21761;-72
2021/07/06 06:42:27;;;;;;;10.60;6.80;;;;;;;23.95;67.75;100080.34;1769594;79;21064;-72
2021/07/06 06:44:53;;;;;;;7.13;6.13;;;;;;;24.04;67.25;100073.33;1763166;80;21140;-73
2021/07/06 06:47:20;;;;;;;6.33;5.60;;;;;;;24.13;66.84;100075.84;1770515;80;21190;-75
2021/07/06 06:49:47;;;;;;;7.40;6.33;;;;;;;24.14;66.79;100074.11;1778892;79;20948;-72
2021/07/06 06:52:15;;;;;;;8.87;6.30;;;;;;;24.20;66.78;100064.48;1773801;79;21111;-73
2021/07/06 06:54:42;;;;;;;7.47;6.23;;;;;;;24.28;66.26;100064.84;1774606;79;20946;-73
2021/07/06 06:57:09;;;;;;;7.73;6.37;;;;;;;24.30;65.84;100066.63;1774366;80;20983;-73
2021/07/06 06:59:36;;;;;;;6.77;6.07;;;;;;;24.31;65.72;100069.55;1769684;79;21078;-72
2021/07/06 07:02:22;;;;;;;7.23;6.30;;;;;;;24.29;65.32;100067.00;1758679;79;21568;-73
2021/07/06 07:04:50;;;;;;;7.80;6.37;;;;;;;24.23;65.68;100076.05;1766841;80;21749;-73
2021/07/06 07:07:19;;;;;;;7.17;6.40;;;;;;;24.24;65.93;100071.37;1765590;80;21510;-73
2021/07/06 07:09:46;;;;;;;8.83;6.30;;;;;;;24.30;65.70;100069.93;1765360;79;21629;-73
2021/07/06 07:12:14;;;;;;;10.20;7.00;;;;;;;24.39;65.51;100075.17;1761607;79;21564;-74
2021/07/06 07:14:41;;;;;;;7.60;5.83;;;;;;;24.46;65.20;100073.38;1713617;81;21019;-74
2021/07/06 07:17:08;;;;;;;7.67;6.27;;;;;;;24.49;65.02;100071.88;1766564;80;21123;-73
2021/07/06 07:19:35;;;;;;;18.10;8.13;;;;;;;24.50;64.90;100071.50;1764974;79;21387;-72
2021/07/06 07:22:03;;;;;;;11.00;7.20;;;;;;;24.49;65.21;100074.60;1775839;79;22171;-75
2021/07/06 07:24:30;;;;;;;10.33;7.13;;;;;;;24.57;65.61;100075.71;1771092;80;21608;-74
2021/07/06 07:26:57;;;;;;;8.73;6.63;;;;;;;24.70;65.26;100077.70;1774554;79;21079;-74
2021/07/06 07:29:25;;;;;;;11.20;6.93;;;;;;;24.85;64.82;100074.64;1784490;79;21146;-73
2021/07/06 07:31:53;;;;;;;7.47;6.70;;;;;;;24.96;64.74;100078.91;1775986;79;21086;-74
2021/07/06 07:34:20;;;;;;;8.47;6.80;;;;;;;25.06;64.47;100079.66;1764316;79;33594;-73
2021/07/06 07:36:47;;;;;;;8.53;6.47;;;;;;;25.21;64.08;100077.97;1754201;81;21042;-73
2021/07/06 07:39:14;;;;;;;9.20;6.47;;;;;;;25.33;63.75;100080.48;1776438;80;21101;-74
2021/07/06 07:41:41;;;;;;;9.03;6.93;;;;;;;25.43;63.19;100081.20;1773038;79;21177;-74
2021/07/06 07:44:07;;;;;;;8.60;6.80;;;;;;;25.45;62.71;100080.85;1769336;79;21027;-73
2021/07/06 07:46:35;;;;;;;8.23;6.90;;;;;;;25.54;62.77;100079.23;1758737;79;21487;-73
2021/07/06 07:49:02;;;;;;;9.33;7.00;;;;;;;25.66;62.44;100083.86;1779564;79;21147;-74
2021/07/06 07:51:29;;;;;;;9.93;6.77;;;;;;;25.79;62.13;100093.22;1726781;81;21062;-73
2021/07/06 07:53:58;;;;;;;19.27;8.13;;;;;;;25.89;62.18;100086.53;1764008;80;21155;-73
2021/07/06 07:56:24;;;;;;;10.83;7.00;;;;;;;26.01;62.02;100082.00;1765648;79;21110;-73
2021/07/06 07:58:52;;;;;;;8.23;6.43;;;;;;;26.11;61.81;100086.22;1781258;80;20984;-73
2021/07/06 08:01:20;;;;;;;9.97;6.67;;;;;;;26.25;61.23;100087.54;1766414;80;20965;-72
2021/07/06 08:03:47;;;;;;;7.17;5.90;;;;;;;26.36;61.47;100093.35;1768603;79;21140;-73
2021/07/06 08:06:14;;;;;;;6.80;6.10;;;;;;;26.48;60.17;100088.79;1710154;80;21120;-72
2021/07/06 08:08:42;;;;;;;7.17;6.00;;;;;;;26.48;59.48;100088.79;1653460;85;21090;-72
2021/07/06 08:11:08;;;;;;;13.10;7.00;;;;;;;26.44;59.82;100092.25;1656487;85;21107;-73
2021/07/06 08:13:37;;;;;;;8.73;6.20;;;;;;;26.44;59.83;100090.09;1658965;85;21084;-72
2021/07/06 08:16:04;;;;;;;8.53;6.20;;;;;;;26.43;59.36;100089.90;1663095;85;21166;-71
2021/07/06 08:18:31;;;;;;;7.23;5.60;;;;;;;26.47;59.64;100090.72;1664284;85;21178;-72
2021/07/06 08:20:58;;;;;;;15.47;7.20;;;;;;;26.53;59.68;100093.36;1662736;85;21033;-73
2021/07/06 08:23:25;;;;;;;9.77;5.87;;;;;;;26.58;59.65;100093.58;1658810;85;21168;-72
2021/07/06 08:25:52;;;;;;;8.00;5.83;;;;;;;26.71;59.70;100091.36;1669989;85;21088;-72
2021/07/06 08:28:18;;;;;;;5.90;5.30;;;;;;;26.81;58.58;100090.66;1662521;85;21123;-72
2021/07/06 08:30:46;;;;;;;9.57;5.67;;;;;;;26.83;58.26;100091.87;1662924;85;21875;-72
2021/07/06 08:33:12;;;;;;;7.77;6.00;;;;;;;26.80;58.53;100095.36;1645781;85;21406;-72
2021/07/06 08:35:40;;;;;;;7.80;6.00;;;;;;;26.79;58.90;100093.02;1659853;84;20961;-74
2021/07/06 08:38:08;;;;;;;9.30;5.40;;;;;;;26.80;58.46;100093.99;1666836;85;21050;-72
2021/07/06 08:40:34;;;;;;;11.40;5.87;;;;;;;26.79;58.23;100093.80;1662048;84;21222;-73
2021/07/06 08:43:02;;;;;;;7.63;6.23;;;;;;;26.78;59.02;100092.78;1653330;85;21212;-72
2021/07/06 08:45:32;;;;;;;7.53;6.23;;;;;;;26.80;58.66;100092.63;1666940;85;20965;-72
2021/07/06 08:47:59;;;;;;;6.37;5.50;;;;;;;26.84;58.36;100097.55;1676651;84;20986;-73
2021/07/06 08:50:26;;;;;;;6.23;5.53;;;;;;;26.88;58.10;100095.64;1665878;84;21025;-72
2021/07/06 08:52:53;;;;;;;6.50;5.47;;;;;;;26.96;58.56;100095.70;1653461;85;21099;-72
2021/07/06 08:55:20;;;;;;;8.07;5.53;;;;;;;27.07;57.86;100097.92;1662567;85;21080;-72
2021/07/06 08:57:52;;;;;;;6.40;5.30;;;;;;;27.16;57.04;100099.02;1666415;84;21148;-72
2021/07/06 09:00:19;;;;;;;5.42;4.92;;;;;;;27.16;56.82;100107.23;1660383;85;21526;-74
2021/07/06 09:03:03;;;;;;;5.50;4.53;;;;;;;27.14;56.18;100104.86;1662045;85;21150;-73
2021/07/06 09:05:30;;;;;;;6.77;4.97;;;;;;;27.17;56.09;100097.83;1669323;85;21096;-72
2021/07/06 09:07:57;;;;;;;6.90;5.20;;;;;;;27.17;55.43;100095.88;1668739;85;21125;-72
2021/07/06 09:10:28;;;;;;;5.53;4.77;;;;;;;27.23;56.29;100099.06;1666182;85;21048;-72
2021/07/06 09:12:54;;;;;;;8.20;5.17;;;;;;;27.36;56.31;100101.69;1665448;85;21472;-72
2021/07/06 09:15:28;;;;;;;5.90;5.07;;;;;;;27.50;56.14;100096.88;1659180;85;21041;-72
2021/07/06 09:18:13;;;;;;;6.63;4.80;;;;;;;27.63;55.63;100096.75;1662056;86;21178;-73
2021/07/06 09:20:41;;;;;;;7.30;4.77;;;;;;;27.79;54.88;100091.77;1661310;85;21819;-72
2021/07/06 09:23:29;;;;;;;5.87;5.10;;;;;;;27.86;53.61;100092.98;1660244;85;21539;-73
2021/07/06 09:26:19;;;;;;;5.50;4.80;;;;;;;27.79;53.72;100093.14;1664735;85;21132;-73
2021/07/06 09:28:54;;;;;;;8.00;5.00;;;;;;;27.74;53.75;100098.98;1647572;86;21071;-73
2021/07/06 09:31:29;;;;;;;7.00;5.30;;;;;;;27.68;54.93;100090.91;1670438;85;21169;-72
2021/07/06 09:34:05;;;;;;;5.70;4.80;;;;;;;27.67;54.15;100097.55;1661553;84;21155;-72
2021/07/06 09:36:38;;;;;;;6.17;4.93;;;;;;;27.67;54.64;100099.52;1666535;85;21101;-72
2021/07/06 09:39:13;;;;;;;5.70;4.97;;;;;;;27.63;54.66;100093.23;1650538;85;21060;-72
2021/07/06 09:41:45;;;;;;;6.23;5.23;;;;;;;27.55;54.87;100098.68;1660770;85;21017;-71
2021/07/06 09:44:24;;;;;;;5.80;4.83;;;;;;;27.51;54.65;100100.63;1660956;85;21135;-73
2021/07/06 09:46:55;;;;;;;9.30;4.83;;;;;;;27.41;54.93;100102.72;1669452;85;21092;-73
2021/07/06 09:49:26;;;;;;;6.70;5.13;;;;;;;27.31;55.05;100106.15;1655282;85;21064;-74
2021/07/06 09:51:53;;;;;;;5.83;5.23;;;;;;;27.29;55.54;100105.17;1656131;85;21125;-73
2021/07/06 09:54:33;;;;;;;6.10;5.47;;;;;;;27.31;55.40;100105.59;1667981;85;21225;-74
2021/07/06 09:57:28;;;;;;;6.27;4.80;;;;;;;27.34;55.43;100109.50;1666314;85;20969;-73
2021/07/06 10:00:17;;;;;;;5.80;4.97;;;;;;;27.34;55.25;100106.20;1649991;85;21068;-74
2021/07/06 10:02:44;;;;;;;6.07;4.83;;;;;;;27.33;56.05;100113.42;1662872;85;21128;-74
2021/07/06 10:05:18;;;;;;;6.57;4.77;;;;;;;27.37;54.91;100111.48;1657475;84;21064;-74
2021/07/06 10:07:45;;;;;;;7.30;5.07;;;;;;;27.41;55.62;100113.69;1655362;85;21173;-73
2021/07/06 10:10:13;;;;;;;6.20;4.90;;;;;;;27.49;55.93;100107.06;1664675;85;21064;-71
2021/07/06 10:12:42;;;;;;;6.47;5.23;;;;;;;27.58;55.78;100114.38;1637428;86;21602;-73
2021/07/06 10:15:11;;;;;;;6.63;4.90;;;;;;;27.62;55.09;100109.50;1645159;85;21456;-71
2021/07/06 10:17:39;;;;;;;8.07;4.77;;;;;;;27.57;55.41;100111.44;1663625;85;21573;-71
2021/07/06 10:20:11;;;;;;;7.33;4.63;;;;;;;27.55;54.72;100107.50;1661568;85;21547;-72
2021/07/06 10:22:38;;;;;;;8.47;5.70;;;;;;;27.52;55.05;100111.79;1663262;85;21088;-73
2021/07/06 10:25:07;;;;;;;7.43;4.80;;;;;;;27.57;54.63;100109.26;1661647;85;21324;-73
2021/07/06 10:27:36;;;;;;;8.00;5.10;;;;;;;27.72;55.86;100108.77;1665983;85;21061;-73
2021/07/06 10:30:19;;;;;;;7.90;5.00;;;;;;;28.01;55.21;100113.24;1665072;85;21085;-72
2021/07/06 10:32:48;;;;;;;8.67;4.90;;;;;;;28.24;54.01;100110.19;1661512;85;21061;-73
2021/07/06 10:35:15;;;;;;;5.73;4.70;;;;;;;28.39;53.84;100110.22;1662587;85;21712;-72
2021/07/06 10:37:42;;;;;;;6.93;4.73;;;;;;;28.52;52.87;100112.82;1658128;85;21146;-73
2021/07/06 10:40:20;;;;;;;6.97;4.00;;;;;;;28.68;53.18;100122.08;1663623;85;21084;-71
2021/07/06 10:42:50;;;;;;;5.75;3.98;;;;;;;28.83;52.62;100113.28;1663398;85;21091;-72
2021/07/06 10:45:23;;;;;;;15.13;5.80;;;;;;;28.95;51.53;100115.62;1654315;84;21127;-71
2021/07/06 10:47:52;;;;;;;10.60;5.03;;;;;;;29.09;51.22;100114.29;1659047;85;21067;-72
2021/07/06 10:50:34;;;;;;;6.28;4.50;;;;;;;29.23;51.00;100117.61;1656709;85;21105;-73
2021/07/06 10:53:24;;;;;;;5.30;4.03;;;;;;;29.40;50.79;100109.91;1662487;85;21136;-72
2021/07/06 10:56:06;;;;;;;22.17;6.87;;;;;;;29.63;51.00;100114.23;1661365;85;21127;-71
2021/07/06 10:58:48;;;;;;;12.90;4.70;;;;;;;29.98;50.18;100116.08;1657182;85;21570;-72
2021/07/06 11:01:43;;;;;;;6.70;3.80;;;;;;;30.12;48.87;100117.38;1584548;87;21608;-72
2021/07/06 11:04:11;;;;;;;4.67;3.62;;;;;;;29.93;48.25;100121.20;1654445;86;21137;-73
2021/07/06 11:06:51;;;;;;;6.90;3.95;;;;;;;29.61;49.10;100122.86;1657593;85;21127;-71
2021/07/06 11:09:35;;;;;;;4.47;3.72;;;;;;;29.51;49.88;100123.64;1660707;85;21023;-71
2021/07/06 11:12:22;;;;;;;6.45;4.20;;;;;;;29.61;50.20;100117.36;1659847;85;21023;-72
2021/07/06 11:14:55;;;;;;;4.62;3.72;;;;;;;29.81;49.70;100125.17;1652819;85;21630;-72
2021/07/06 11:17:47;;;;;;;5.12;3.72;;;;;;;29.89;50.43;100117.09;1651535;85;21131;-72
2021/07/06 11:20:18;;;;;;;7.28;4.33;;;;;;;29.95;50.46;100121.60;1662203;85;21021;-71
2021/07/06 11:22:55;;;;;;;5.90;3.52;;;;;;;29.91;49.93;100111.95;1661400;85;21056;-72
2021/07/06 11:25:37;;;;;;;4.75;3.60;;;;;;;29.78;48.60;100127.34;1662727;85;21111;-72
2021/07/06 11:28:14;;;;;;;5.17;3.87;;;;;;;29.64;49.08;100124.82;1652528;85;21120;-73
2021/07/06 11:30:49;;;;;;;5.05;3.95;;;;;;;29.59;48.19;100125.81;1661962;85;21146;-72
2021/07/06 11:33:22;;;;;;;5.47;3.40;;;;;;;29.65;49.13;100131.92;1660479;85;21151;-72
2021/07/06 11:35:56;;;;;;;5.08;4.03;;;;;;;29.80;48.64;100123.61;1653194;85;21044;-72